createdAt,value
2023-12-04T00:00:31.558Z,-2.22
2023-12-04T00:02:57.827Z,-2.20
2023-12-04T00:05:24.061Z,-2.23
2023-12-04T00:07:50.252Z,-2.24
2023-12-04T00:10:16.451Z,-2.20
2023-12-04T00:12:42.698Z,-2.22
2023-12-04T00:15:08.912Z,-2.23
2023-12-04T00:17:35.238Z,-2.21
2023-12-04T00:20:01.480Z,-2.24
2023-12-04T00:22:27.691Z,-2.26
2023-12-04T00:24:54.038Z,-2.20
2023-12-04T00:27:20.453Z,-2.22
2023-12-04T00:29:46.709Z,-2.25
2023-12-04T00:32:12.939Z,-2.26
2023-12-04T00:34:39.189Z,-2.23
2023-12-04T00:37:05.454Z,-2.26
2023-12-04T00:39:31.674Z,-2.28
2023-12-04T00:41:58.749Z,-2.25
2023-12-04T00:44:24.948Z,-2.12
2023-12-04T00:46:51.538Z,-2.10
2023-12-04T00:49:17.898Z,-2.14
2023-12-04T00:51:44.236Z,-2.29
2023-12-04T00:54:10.442Z,-2.26
2023-12-04T00:56:36.643Z,-2.35
2023-12-04T00:59:02.885Z,-2.35
2023-12-04T01:01:29.119Z,-2.36
2023-12-04T01:03:55.436Z,-2.41
2023-12-04T01:06:21.684Z,-2.39
2023-12-04T01:08:47.921Z,-2.40
2023-12-04T01:11:14.095Z,-2.32
2023-12-04T01:13:40.274Z,-2.40
2023-12-04T01:16:06.585Z,-2.31
2023-12-04T01:18:33.057Z,-2.22
2023-12-04T01:20:59.351Z,-2.13
2023-12-04T01:23:25.542Z,-2.14
2023-12-04T01:25:51.756Z,-2.19
2023-12-04T01:28:17.984Z,-2.27
2023-12-04T01:30:44.183Z,-2.18
2023-12-04T01:33:10.505Z,-2.15
2023-12-04T01:35:36.744Z,-2.13
2023-12-04T01:38:02.974Z,-2.13
2023-12-04T01:40:29.226Z,-2.07
2023-12-04T01:42:56.125Z,-2.14
2023-12-04T01:45:22.327Z,-2.21
2023-12-04T01:47:48.751Z,-2.14
2023-12-04T01:50:15.102Z,-2.22
2023-12-04T01:52:41.349Z,-2.15
2023-12-04T01:55:07.570Z,-2.05
2023-12-04T01:57:33.814Z,-2.09
2023-12-04T02:00:00.749Z,-2.17
2023-12-04T02:02:26.958Z,-2.21
2023-12-04T02:04:53.650Z,-2.26
2023-12-04T02:07:19.931Z,-2.28
2023-12-04T02:09:46.130Z,-2.30
2023-12-04T02:12:12.382Z,-2.23
2023-12-04T02:14:38.611Z,-2.18
2023-12-04T02:17:04.822Z,-2.20
2023-12-04T02:19:31.192Z,-2.13
2023-12-04T02:21:57.912Z,-2.11
2023-12-04T02:24:24.228Z,-2.08
2023-12-04T02:26:50.487Z,-2.05
2023-12-04T02:29:16.714Z,-2.16
2023-12-04T02:31:42.956Z,-2.27
2023-12-04T02:34:09.304Z,-2.34
2023-12-04T02:36:35.626Z,-2.29
2023-12-04T02:39:01.878Z,-2.30
2023-12-04T02:41:28.076Z,-2.21
2023-12-04T02:43:54.307Z,-2.23
2023-12-04T02:46:20.551Z,-2.20
2023-12-04T02:48:46.877Z,-1.86
2023-12-04T02:51:13.215Z,-1.70
2023-12-04T02:53:39.478Z,-1.66
2023-12-04T02:56:05.670Z,-1.66
2023-12-04T02:58:31.860Z,-1.64
2023-12-04T03:00:58.133Z,-1.69
2023-12-04T03:03:24.385Z,-1.63
2023-12-04T03:05:50.629Z,-1.65
2023-12-04T03:08:16.920Z,-1.67
2023-12-04T03:10:43.157Z,-1.68
2023-12-04T03:13:09.436Z,-1.67
2023-12-04T03:15:35.805Z,-1.68
2023-12-04T03:18:02.993Z,-1.52
2023-12-04T03:20:29.918Z,-1.52
2023-12-04T03:22:56.696Z,-1.52
2023-12-04T03:25:25.076Z,-1.52
2023-12-04T03:27:51.741Z,-1.53
2023-12-04T03:30:18.039Z,-1.47
2023-12-04T03:32:44.326Z,-1.44
2023-12-04T03:35:10.515Z,-1.50
2023-12-04T03:37:36.718Z,-1.45
2023-12-04T03:40:03.030Z,-1.45
2023-12-04T03:42:29.402Z,-1.51
2023-12-04T03:44:55.676Z,-1.56
2023-12-04T03:47:22.005Z,-1.49
2023-12-04T03:49:48.237Z,-1.54
2023-12-04T03:52:14.520Z,-1.55
2023-12-04T03:54:40.814Z,-1.62
2023-12-04T03:57:07.049Z,-1.57
2023-12-04T03:59:33.296Z,-1.54
2023-12-04T04:01:59.593Z,-1.61
2023-12-04T04:04:25.904Z,-1.56
2023-12-04T04:06:52.256Z,-1.56
2023-12-04T04:09:18.539Z,-1.60
2023-12-04T04:11:44.728Z,-1.48
2023-12-04T04:14:10.955Z,-1.44
2023-12-04T04:16:37.184Z,-1.45
2023-12-04T04:19:03.526Z,-1.49
2023-12-04T04:21:29.969Z,-1.54
2023-12-04T04:23:56.216Z,-1.59
2023-12-04T04:26:22.440Z,-1.56
2023-12-04T04:28:48.666Z,-1.53
2023-12-04T04:31:14.928Z,-1.56
2023-12-04T04:33:41.229Z,-1.53
2023-12-04T04:36:07.456Z,-1.51
2023-12-04T04:38:33.647Z,-1.49
2023-12-04T04:40:59.954Z,-1.56
2023-12-04T04:43:26.417Z,-1.61
2023-12-04T04:45:52.692Z,-1.55
2023-12-04T04:48:18.914Z,-1.47
2023-12-04T04:50:45.162Z,-1.46
2023-12-04T04:53:11.375Z,-1.52
2023-12-04T04:55:47.382Z,-1.39
2023-12-04T04:58:15.532Z,-1.38
2023-12-04T05:00:41.860Z,-1.43
2023-12-04T05:03:08.175Z,-1.36
2023-12-04T05:05:34.361Z,-1.33
2023-12-04T05:08:00.985Z,-1.40
2023-12-04T05:10:27.311Z,-1.33
2023-12-04T05:12:54.100Z,-1.41
2023-12-04T05:15:20.405Z,-1.41
2023-12-04T05:17:46.674Z,-1.43
2023-12-04T05:20:12.870Z,-1.41
2023-12-04T05:22:39.095Z,-1.38
2023-12-04T05:25:05.352Z,-1.47
2023-12-04T05:27:31.606Z,-1.54
2023-12-04T05:29:57.858Z,-1.54
2023-12-04T05:32:24.133Z,-1.57
2023-12-04T05:34:50.371Z,-1.56
2023-12-04T05:37:16.641Z,-1.55
2023-12-04T05:39:42.878Z,-1.58
2023-12-04T05:42:09.158Z,-1.60
2023-12-04T05:44:35.408Z,-1.64
2023-12-04T05:47:02.309Z,-1.72
2023-12-04T05:49:28.580Z,-1.76
2023-12-04T05:51:54.809Z,-1.72
2023-12-04T05:54:21.059Z,-1.72
2023-12-04T05:56:47.236Z,-1.78
2023-12-04T05:59:13.423Z,-1.82
2023-12-04T06:01:39.673Z,-1.89
2023-12-04T06:04:05.943Z,-1.94
2023-12-04T06:06:32.148Z,-2.00
2023-12-04T06:08:58.385Z,-2.07
2023-12-04T06:11:24.608Z,-2.04
2023-12-04T06:13:50.834Z,-2.10
2023-12-04T06:16:17.060Z,-2.15
2023-12-04T06:18:43.934Z,-2.13
2023-12-04T06:21:10.208Z,-2.19
2023-12-04T06:23:36.426Z,-2.21
2023-12-04T06:26:02.642Z,-2.18
2023-12-04T06:28:28.883Z,-2.18
2023-12-04T06:30:55.113Z,-2.10
2023-12-04T06:33:21.427Z,-2.10
2023-12-04T06:35:49.993Z,-2.15
2023-12-04T06:38:16.180Z,-2.05
2023-12-04T06:40:42.385Z,-2.04
2023-12-04T06:43:08.736Z,-1.98
2023-12-04T06:45:35.117Z,-1.93
2023-12-04T06:48:08.171Z,-1.89
2023-12-04T06:50:34.431Z,-1.83
2023-12-04T06:53:00.639Z,-1.82
2023-12-04T06:55:26.908Z,-1.78
2023-12-04T06:57:53.175Z,-1.76
2023-12-04T07:00:21.944Z,-1.74
2023-12-04T07:02:50.545Z,-1.71
2023-12-04T07:05:18.808Z,-1.64
2023-12-04T07:07:45.143Z,-1.63
2023-12-04T07:10:11.396Z,-1.55
2023-12-04T07:12:37.675Z,-1.46
2023-12-04T07:15:03.988Z,-1.48
2023-12-04T07:17:30.218Z,-1.43
2023-12-04T07:19:56.487Z,-1.37
2023-12-04T07:22:22.692Z,-1.34
2023-12-04T07:24:48.939Z,-1.32
2023-12-04T07:27:15.182Z,-1.30
2023-12-04T07:29:41.350Z,-1.25
2023-12-04T07:32:07.587Z,-1.19
2023-12-04T07:34:33.918Z,-1.09
2023-12-04T07:37:00.256Z,-0.99
2023-12-04T07:39:26.481Z,-0.90
2023-12-04T07:41:52.769Z,-0.88
2023-12-04T07:44:19.018Z,-0.89
2023-12-04T07:46:45.233Z,-0.86
2023-12-04T07:49:11.557Z,-0.81
2023-12-04T07:51:37.936Z,-0.81
2023-12-04T07:54:04.759Z,-0.76
2023-12-04T07:56:31.019Z,-0.68
2023-12-04T07:58:57.247Z,-0.62
2023-12-04T08:01:23.563Z,-0.63
2023-12-04T08:03:49.837Z,-0.57
2023-12-04T08:06:16.128Z,-0.55
2023-12-04T08:08:42.356Z,-0.50
2023-12-04T08:11:08.626Z,-0.48
2023-12-04T08:13:34.875Z,-0.43
2023-12-04T08:16:01.110Z,-0.35
2023-12-04T08:18:27.415Z,-0.31
2023-12-04T08:20:53.778Z,-0.27
2023-12-04T08:23:20.065Z,-0.24
2023-12-04T08:25:46.295Z,-0.22
2023-12-04T08:28:12.602Z,-0.23
2023-12-04T08:30:38.903Z,-0.20
2023-12-04T08:33:05.355Z,-0.16
2023-12-04T08:35:31.666Z,-0.11
2023-12-04T08:37:58.054Z,-0.08
2023-12-04T08:40:24.419Z,0.03
2023-12-04T08:42:50.845Z,0.12
2023-12-04T08:45:19.156Z,0.25
2023-12-04T08:47:46.117Z,0.35
2023-12-04T08:50:12.359Z,0.43
2023-12-04T08:52:38.609Z,0.55
2023-12-04T08:55:05.006Z,0.71
2023-12-04T08:57:31.262Z,0.75
2023-12-04T08:59:57.727Z,0.83
2023-12-04T09:02:23.999Z,0.82
2023-12-04T09:04:50.426Z,0.73
2023-12-04T09:09:45.977Z,0.65
2023-12-04T09:12:12.241Z,0.61
2023-12-04T09:14:38.561Z,0.62
2023-12-04T09:17:04.843Z,0.58
2023-12-04T09:19:31.162Z,0.62
2023-12-04T09:22:07.924Z,0.63
2023-12-04T09:24:39.128Z,0.69
2023-12-04T09:27:05.421Z,0.73
2023-12-04T09:29:31.665Z,0.76
2023-12-04T09:31:57.921Z,0.73
2023-12-04T09:34:24.136Z,0.79
2023-12-04T09:36:52.374Z,0.74
2023-12-04T09:39:20.119Z,0.70
2023-12-04T09:41:46.330Z,0.72
2023-12-04T09:44:12.594Z,0.79
2023-12-04T09:46:38.835Z,0.86
2023-12-04T09:49:05.321Z,0.97
2023-12-04T09:51:31.715Z,1.04
2023-12-04T09:53:58.343Z,0.97
2023-12-04T09:56:24.608Z,0.91
2023-12-04T09:58:50.867Z,0.90
2023-12-04T10:01:17.105Z,0.81
2023-12-04T10:03:43.463Z,0.80
2023-12-04T10:06:09.772Z,0.81
2023-12-04T10:08:36.001Z,0.79
2023-12-04T10:11:02.305Z,0.72
2023-12-04T10:13:56.158Z,0.71
2023-12-04T10:16:15.009Z,0.68
2023-12-04T10:18:41.434Z,0.70
2023-12-04T10:21:08.551Z,0.72
2023-12-04T10:23:36.141Z,0.69
2023-12-04T10:26:02.347Z,0.69
2023-12-04T10:28:28.573Z,0.67
2023-12-04T10:30:54.812Z,0.69
2023-12-04T10:33:21.179Z,0.73
2023-12-04T10:35:47.446Z,0.84
2023-12-04T10:38:16.470Z,0.81
2023-12-04T10:40:42.708Z,0.93
2023-12-04T10:43:08.985Z,0.94
2023-12-04T10:45:35.250Z,0.94
2023-12-04T10:48:01.502Z,0.78
2023-12-04T10:50:27.749Z,0.81
2023-12-04T10:52:54.023Z,0.87
2023-12-04T10:55:20.289Z,0.74
2023-12-04T10:57:46.537Z,0.74
2023-12-04T11:00:13.447Z,0.81
2023-12-04T11:02:39.838Z,0.81
2023-12-04T11:05:06.121Z,0.83
2023-12-04T11:07:32.344Z,0.83
2023-12-04T11:10:18.566Z,0.84
2023-12-04T11:13:09.783Z,0.89
2023-12-04T11:15:37.526Z,0.91
2023-12-04T11:18:06.785Z,0.82
2023-12-04T11:20:33.052Z,0.74
2023-12-04T11:22:59.280Z,0.66
2023-12-04T11:25:25.509Z,0.58
2023-12-04T11:27:51.728Z,0.50
2023-12-04T11:30:17.957Z,0.47
2023-12-04T11:32:44.249Z,0.50
2023-12-04T11:35:10.468Z,0.43
2023-12-04T11:37:36.692Z,0.46
2023-12-04T11:40:02.884Z,0.37
2023-12-04T11:42:29.137Z,0.27
2023-12-04T11:44:55.350Z,0.24
2023-12-04T11:47:21.582Z,0.29
2023-12-04T11:49:47.827Z,0.31
2023-12-04T11:52:14.066Z,0.37
2023-12-04T11:54:40.325Z,0.41
2023-12-04T11:57:06.585Z,0.47
2023-12-04T11:59:33.043Z,0.45
2023-12-04T12:01:59.380Z,0.39
2023-12-04T12:04:25.796Z,0.26
2023-12-04T12:06:52.214Z,0.41
2023-12-04T12:09:18.497Z,0.43
2023-12-04T12:11:44.884Z,0.49
2023-12-04T12:14:11.120Z,0.51
2023-12-04T12:16:37.425Z,0.60
2023-12-04T12:19:03.777Z,0.61
2023-12-04T12:21:30.248Z,0.61
2023-12-04T12:23:57.764Z,0.55
2023-12-04T12:26:24.310Z,0.47
2023-12-04T12:28:51.204Z,0.39
2023-12-04T12:31:21.465Z,0.34
2023-12-04T12:33:48.887Z,0.26
2023-12-04T12:36:15.237Z,0.25
2023-12-04T12:38:41.482Z,0.28
2023-12-04T12:41:07.688Z,0.36
2023-12-04T12:43:33.920Z,0.37
2023-12-04T12:46:00.176Z,0.43
2023-12-04T12:48:27.766Z,0.47
2023-12-04T12:50:55.132Z,0.50
2023-12-04T12:53:21.360Z,0.46
2023-12-04T12:55:47.654Z,0.50
2023-12-04T12:58:13.922Z,0.64
2023-12-04T13:00:40.252Z,0.67
2023-12-04T13:03:06.692Z,0.69
2023-12-04T13:05:38.432Z,0.61
2023-12-04T13:08:04.790Z,0.67
2023-12-04T13:10:31.622Z,0.68
2023-12-04T13:12:57.896Z,0.66
2023-12-04T13:15:24.156Z,0.73
2023-12-04T13:17:50.407Z,0.84
2023-12-04T13:20:16.743Z,0.82
2023-12-04T13:22:43.045Z,0.82
2023-12-04T13:25:09.333Z,0.76
2023-12-04T13:27:35.576Z,0.78
2023-12-04T13:30:01.810Z,0.70
2023-12-04T13:32:28.078Z,0.73
2023-12-04T13:34:54.659Z,0.74
2023-12-04T13:37:20.861Z,0.76
2023-12-04T13:39:47.096Z,0.76
2023-12-04T13:42:13.320Z,0.73
2023-12-04T13:44:39.510Z,0.73
2023-12-04T13:47:06.086Z,0.75
2023-12-04T13:49:32.288Z,0.78
2023-12-04T13:51:58.474Z,0.75
2023-12-04T13:54:24.808Z,0.77
2023-12-04T13:56:51.020Z,0.78
2023-12-04T13:59:17.231Z,0.74
2023-12-04T14:01:49.635Z,0.75
2023-12-04T14:04:16.361Z,0.76
2023-12-04T14:06:51.336Z,0.78
2023-12-04T14:09:17.940Z,0.80
2023-12-04T14:11:44.251Z,0.82
2023-12-04T14:14:10.465Z,0.80
2023-12-04T14:16:36.734Z,0.80
2023-12-04T14:19:02.951Z,0.87
2023-12-04T14:21:29.228Z,0.83
2023-12-04T14:23:55.486Z,0.88
2023-12-04T14:26:21.675Z,0.95
2023-12-04T14:28:47.880Z,0.93
2023-12-04T14:31:14.166Z,0.85
2023-12-04T14:33:42.416Z,0.92
2023-12-04T14:36:10.058Z,0.92
2023-12-04T14:38:36.258Z,0.97
2023-12-04T14:41:02.482Z,1.08
2023-12-04T14:43:28.732Z,1.16
2023-12-04T14:45:54.979Z,1.25
2023-12-04T14:48:24.455Z,1.23
2023-12-04T14:50:50.739Z,1.26
2023-12-04T14:53:17.502Z,1.27
2023-12-04T14:55:43.742Z,1.29
2023-12-04T14:58:10.130Z,1.28
2023-12-04T15:00:36.401Z,1.29
2023-12-04T15:03:02.797Z,1.35
2023-12-04T15:05:29.242Z,1.36
2023-12-04T15:08:04.512Z,1.41
2023-12-04T15:10:30.884Z,1.37
2023-12-04T15:12:57.143Z,1.39
2023-12-04T15:15:23.362Z,1.41
2023-12-04T15:17:49.987Z,1.40
2023-12-04T15:20:16.236Z,1.42
2023-12-04T15:22:42.452Z,1.39
2023-12-04T15:25:08.762Z,1.39
2023-12-04T15:27:35.041Z,1.35
2023-12-04T15:30:01.282Z,1.35
2023-12-04T15:32:27.542Z,1.34
2023-12-04T15:34:53.882Z,1.37
2023-12-04T15:37:20.466Z,1.39
2023-12-04T15:39:46.800Z,1.43
2023-12-04T15:42:13.074Z,1.44
2023-12-04T15:44:39.276Z,1.58
2023-12-04T15:47:05.501Z,1.58
2023-12-04T15:49:31.884Z,1.56
2023-12-04T15:51:58.098Z,1.61
2023-12-04T15:54:24.414Z,1.56
2023-12-04T15:56:50.661Z,1.57
2023-12-04T15:59:16.865Z,1.62
2023-12-04T16:01:43.124Z,1.61
2023-12-04T16:04:09.478Z,1.62
2023-12-04T16:06:35.799Z,1.62
2023-12-04T16:09:02.143Z,1.61
2023-12-04T16:11:28.354Z,1.59
2023-12-04T16:13:54.754Z,1.50
2023-12-04T16:16:20.997Z,1.47
2023-12-04T16:18:47.245Z,1.45
2023-12-04T16:21:13.543Z,1.46
2023-12-04T16:23:39.774Z,1.51
2023-12-04T16:26:05.993Z,1.57
2023-12-04T16:28:32.163Z,1.59
2023-12-04T16:30:58.425Z,1.57
2023-12-04T16:33:24.867Z,1.54
2023-12-04T16:35:51.149Z,1.52
2023-12-04T16:38:17.414Z,1.49
2023-12-04T16:40:43.659Z,1.53
2023-12-04T16:43:09.998Z,1.57
2023-12-04T16:45:36.692Z,1.56
2023-12-04T16:48:03.081Z,1.58
2023-12-04T16:50:29.391Z,1.67
2023-12-04T16:52:55.615Z,1.68
2023-12-04T16:55:21.833Z,1.75
2023-12-04T16:57:48.116Z,1.83
2023-12-04T17:00:14.489Z,1.87
2023-12-04T17:02:40.897Z,1.90
2023-12-04T17:05:07.368Z,1.99
2023-12-04T17:07:33.667Z,1.95
2023-12-04T17:09:59.885Z,1.88
2023-12-04T17:12:26.232Z,1.89
2023-12-04T17:14:52.512Z,1.87
2023-12-04T17:17:18.723Z,1.90
2023-12-04T17:19:44.975Z,1.96
2023-12-04T17:22:11.146Z,2.00
2023-12-04T17:24:37.416Z,1.98
2023-12-04T17:27:03.702Z,2.00
2023-12-04T17:29:29.889Z,1.97
2023-12-04T17:31:56.160Z,1.95
2023-12-04T17:34:22.641Z,1.96
2023-12-04T17:36:48.971Z,1.90
2023-12-04T17:39:15.261Z,1.82
2023-12-04T17:41:41.459Z,1.84
2023-12-04T17:44:07.707Z,1.88
2023-12-04T17:46:33.903Z,1.95
2023-12-04T17:49:00.267Z,2.01
2023-12-04T17:51:26.869Z,2.05
2023-12-04T17:53:53.169Z,2.02
2023-12-04T17:56:19.411Z,2.01
2023-12-04T17:58:45.747Z,2.06
2023-12-04T18:01:12.097Z,2.04
2023-12-04T18:03:38.613Z,2.10
2023-12-04T18:06:05.013Z,2.11
2023-12-04T18:08:31.374Z,2.16
2023-12-04T18:10:57.653Z,2.15
2023-12-04T18:13:23.847Z,2.22
2023-12-04T18:15:50.127Z,2.25
2023-12-04T18:18:16.541Z,2.20
2023-12-04T18:20:42.854Z,2.30
2023-12-04T18:23:09.065Z,2.35
2023-12-04T18:25:35.359Z,2.38
2023-12-04T18:28:01.623Z,2.40
2023-12-04T18:30:27.926Z,2.41
2023-12-04T18:32:54.215Z,2.51
2023-12-04T18:35:21.083Z,2.46
2023-12-04T18:37:47.278Z,2.47
2023-12-04T18:40:13.504Z,2.43
2023-12-04T18:42:39.779Z,2.45
2023-12-04T18:45:06.151Z,2.47
2023-12-04T18:47:32.697Z,2.52
2023-12-04T18:49:58.972Z,2.50
2023-12-04T18:52:25.283Z,2.49
2023-12-04T18:54:51.585Z,2.46
2023-12-04T18:57:18.303Z,2.54
2023-12-04T18:59:44.568Z,2.64
2023-12-04T19:02:10.797Z,2.65
2023-12-04T19:04:37.312Z,2.68
2023-12-04T19:07:03.764Z,2.75
2023-12-04T19:09:30.095Z,2.75
2023-12-04T19:11:56.360Z,2.78
2023-12-04T19:14:23.214Z,2.80
2023-12-04T19:16:49.497Z,2.78
2023-12-04T19:19:15.851Z,2.77
2023-12-04T19:21:42.093Z,2.84
2023-12-04T19:24:08.311Z,2.90
2023-12-04T19:26:34.546Z,2.91
2023-12-04T19:29:00.792Z,2.91
2023-12-04T19:31:27.022Z,2.91
2023-12-04T19:33:53.349Z,2.90
2023-12-04T19:36:19.695Z,2.93
2023-12-04T19:38:45.984Z,2.96
2023-12-04T19:41:12.261Z,2.90
2023-12-04T19:43:38.521Z,2.89
2023-12-04T19:46:04.767Z,2.86
2023-12-04T19:48:30.988Z,2.81
2023-12-04T19:50:57.267Z,2.74
2023-12-04T19:53:23.494Z,2.74
2023-12-04T19:55:49.736Z,2.72
2023-12-04T19:58:15.983Z,2.73
2023-12-04T20:00:42.348Z,2.75
2023-12-04T20:03:09.025Z,2.73
2023-12-04T20:05:35.889Z,2.76
2023-12-04T20:08:02.285Z,2.68
2023-12-04T20:10:28.526Z,2.64
2023-12-04T20:12:55.323Z,2.61
2023-12-04T20:15:21.612Z,2.55
2023-12-04T20:17:47.882Z,2.60
2023-12-04T20:20:14.317Z,2.52
2023-12-04T20:22:40.551Z,2.58
2023-12-04T20:25:06.797Z,2.39
2023-12-04T20:27:33.135Z,2.40
2023-12-04T20:29:59.394Z,2.36
2023-12-04T20:32:25.693Z,2.36
2023-12-04T20:34:51.982Z,2.32
2023-12-04T20:37:18.262Z,2.34
2023-12-04T20:39:44.547Z,2.34
2023-12-04T20:42:10.842Z,2.32
2023-12-04T20:44:37.103Z,2.26
2023-12-04T20:47:03.361Z,2.21
2023-12-04T20:49:29.742Z,2.16
2023-12-04T20:51:56.007Z,2.15
2023-12-04T20:54:22.240Z,2.10
2023-12-04T20:56:48.456Z,2.09
2023-12-04T20:59:14.667Z,2.04
2023-12-04T21:01:40.953Z,2.03
2023-12-04T21:04:07.321Z,2.05
2023-12-04T21:06:33.764Z,2.02
2023-12-04T21:09:00.046Z,2.02
2023-12-04T21:11:27.335Z,2.02
2023-12-04T21:13:53.638Z,2.05
2023-12-04T21:16:19.981Z,1.88
2023-12-04T21:18:46.421Z,2.03
2023-12-04T21:21:12.830Z,2.05
2023-12-04T21:23:39.082Z,2.07
2023-12-04T21:26:05.340Z,2.07
2023-12-04T21:28:31.552Z,2.09
2023-12-04T21:30:57.911Z,2.19
2023-12-04T21:33:24.441Z,2.25
2023-12-04T21:35:50.769Z,2.30
2023-12-04T21:38:17.000Z,2.31
2023-12-04T21:40:43.218Z,2.28
2023-12-04T21:43:09.400Z,2.28
2023-12-04T21:45:35.662Z,2.30
2023-12-04T21:48:01.980Z,2.33
2023-12-04T21:50:28.260Z,2.37
2023-12-04T21:52:54.896Z,2.39
2023-12-04T21:55:21.111Z,2.42
2023-12-04T21:57:47.391Z,2.43
2023-12-04T22:00:13.673Z,2.42
2023-12-04T22:02:41.247Z,2.42
2023-12-04T22:05:09.337Z,2.42
2023-12-04T22:07:35.578Z,2.45
2023-12-04T22:10:01.764Z,2.51
2023-12-04T22:12:28.000Z,2.54
2023-12-04T22:14:54.308Z,2.57
2023-12-04T22:17:20.489Z,2.57
2023-12-04T22:19:46.810Z,2.56
2023-12-04T22:22:13.063Z,2.65
2023-12-04T22:24:39.322Z,2.66
2023-12-04T22:27:05.487Z,2.64
2023-12-04T22:29:32.029Z,2.63
2023-12-04T22:31:58.204Z,2.70
2023-12-04T22:34:24.535Z,2.72
2023-12-04T22:36:50.805Z,2.72
2023-12-04T22:39:17.177Z,2.72
2023-12-04T22:41:43.631Z,2.75
2023-12-04T22:44:09.834Z,2.73
2023-12-04T22:46:36.066Z,2.74
2023-12-04T22:49:02.329Z,2.69
2023-12-04T22:51:30.370Z,2.69
2023-12-04T22:53:56.826Z,2.69
2023-12-04T22:56:23.128Z,2.68
2023-12-04T22:58:49.374Z,2.68
2023-12-04T23:01:15.783Z,2.71
2023-12-04T23:03:42.247Z,2.72
2023-12-04T23:06:08.586Z,2.69
2023-12-04T23:08:34.803Z,2.69
2023-12-04T23:11:01.014Z,2.68
2023-12-04T23:13:27.258Z,2.70
2023-12-04T23:15:53.556Z,2.70
2023-12-04T23:18:19.824Z,2.64
2023-12-04T23:20:46.052Z,2.66
2023-12-04T23:23:12.261Z,2.70
2023-12-04T23:25:38.534Z,2.72
2023-12-04T23:28:04.820Z,2.70
2023-12-04T23:30:32.125Z,2.75
2023-12-04T23:32:58.424Z,2.72
2023-12-04T23:35:24.725Z,2.72
2023-12-04T23:37:50.953Z,2.73
2023-12-04T23:40:17.196Z,2.72
2023-12-04T23:42:43.483Z,2.72
2023-12-04T23:45:09.717Z,2.75
2023-12-04T23:47:35.951Z,2.77
2023-12-04T23:50:02.256Z,2.72
2023-12-04T23:52:28.504Z,2.73
2023-12-04T23:54:54.763Z,2.75
2023-12-04T23:57:21.790Z,2.75
2023-12-04T23:59:47.950Z,2.82
